Data for 08/23/2005

Time Sea-Level Adjusted Pressure Absolute Pressure Temperature Relative Humidity Dew Point   
(mb) (inHg) (mb) (inHg) (C) (F) (%) (C) (F)
00:05 1018 30.06 848 25.04 18.9 66 50 8.4 47.2
00:10 1018 30.06 847 25.01 18.8 65.9 51 8.5 47.3
00:15 1018 30.06 848 25.04 18.7 65.7 51 8.5 47.4
00:20 1018 30.06 848 25.04 18.3 64.9 53 8.7 47.7
00:25 1018 30.06 848 25.04 18.1 64.6 54 8.7 47.6
00:30 1018 30.06 848 25.04 18.1 64.6 54 8.7 47.6
00:35 1018 30.06 848 25.04 18.2 64.7 53 8.7 47.6
00:40 1018 30.06 847 25.01 18.3 64.9 54 8.8 47.9
00:45 1018 30.06 847 25.01 18.4 65 54 8.9 48.1
00:50 1018 30.06 847 25.01 18.3 64.9 54 8.8 47.8
00:55 1018 30.06 847 25.01 18.2 64.8 54 8.9 48
01:00 1018 30.06 847 25.01 18.2 64.8 55 9.1 48.3
01:05 1018 30.06 847 25.01 18 64.5 56 9.2 48.5
01:10 1018 30.06 847 25.01 18 64.3 56 9.1 48.4
01:15 1018 30.06 847 25.01 17.6 63.8 56 9 48.1
01:20 1018 30.06 847 25.01 17.7 63.8 57 9 48.2
01:25 1017 30.03 847 25.01 17.6 63.6 56 8.9 47.9
01:30 1017 30.03 847 25.01 17.6 63.6 59 9.5 49.1
01:35 1017 30.03 846 24.98 17.5 63.5 63 10.4 50.7
01:40 1017 30.03 846 24.98 17.4 63.3 60 9.7 49.5
01:45 1017 30.03 846 24.98 17.2 63 61 9.7 49.5
01:50 1017 30.03 846 24.98 17.3 63.1 61 9.8 49.6
01:55 1017 30.03 846 24.98 17.2 63 63 10.1 50.2
02:00 1017 30.03 846 24.98 17.1 62.8 64 10.2 50.4
02:05 1017 30.03 846 24.98 17 62.6 64 10.2 50.4
02:10 1017 30.03 846 24.98 17 62.6 65 10.4 50.8
02:15 1017 30.03 846 24.98 16.9 62.4 66 10.6 51.1
02:20 1017 30.03 846 24.98 16.4 61.6 70 11.1 52
02:25 1017 30.03 846 24.98 15.7 60.3 74 11.1 52
02:30 1017 30.03 846 24.98 15.2 59.3 74 10.6 51
02:35 1017 30.03 846 24.98 15.1 59.3 73 10.3 50.6
02:40 1017 30.03 846 24.98 15.1 59.1 75 10.7 51.2
02:45 1017 30.03 846 24.98 14.8 58.7 74 10.3 50.5
02:50 1017 30.03 846 24.98 14.8 58.7 77 10.8 51.4
02:55 1016 30 846 24.98 14.9 58.8 77 10.9 51.6
03:00 1016 30 846 24.98 14.7 58.4 76 10.5 50.9
03:05 1016 30 846 24.98 14.4 57.9 76 10.2 50.4
03:10 1016 30 846 24.98 14.4 57.9 76 10.2 50.4
03:15 1016 30 846 24.98 14.3 57.8 74 9.9 49.8
03:20 1016 30 846 24.98 14.5 58.2 76 10.4 50.7
03:25 1016 30 846 24.98 14.6 58.2 75 10.1 50.2
03:30 1016 30 845 24.95 14.6 58.3 75 10.2 50.3
03:35 1016 30 845 24.95 14.5 58 76 10.3 50.5
03:40 1016 30 845 24.95 13.9 57.1 78 10.2 50.3
03:45 1016 30 845 24.95 13.8 56.8 78 10 50
03:50 1016 30 845 24.95 13.4 56.1 79 9.8 49.6
03:55 1016 30 845 24.95 13.1 55.6 81 10 50
04:00 1016 30 845 24.95 12.9 55.2 81 9.7 49.4
04:05 1016 30 845 24.95 13 55.4 79 9.4 48.9
04:10 1016 30 845 24.95 13.5 56.4 74 9.1 48.4
04:15 1016 30 845 24.95 13.8 56.8 74 9.3 48.8
04:20 1016 30 845 24.95 13.5 56.4 76 9.5 49
04:25 1016 30 845 24.95 13.1 55.7 78 9.4 49
04:30 1016 30 845 24.95 13 55.4 77 9.1 48.4
04:35 1016 30 845 24.95 13 55.4 75 8.7 47.7
04:40 1016 30 845 24.95 13.3 55.9 75 9.1 48.4
04:45 1016 30 845 24.95 13.5 56.4 73 8.7 47.7
04:50 1016 30 845 24.95 13.4 56.1 75 9 48.2
04:55 1016 30 845 24.95 13 55.4 76 8.9 47.9
05:00 1016 30 845 24.95 12.8 55.1 78 9 48.3
05:05 1016 30 845 24.95 12.3 54.2 80 9 48.2
05:10 1016 30 845 24.95 12.1 53.8 80 8.8 47.8
05:15 1016 30 845 24.95 11.8 53.3 80 8.5 47.3
05:20 1016 30 845 24.95 11.7 53 81 8.5 47.3
05:25 1016 30 845 24.95 11.4 52.5 84 8.8 47.9
05:30 1016 30 845 24.95 11.9 53.5 78 8.3 46.9
05:35 1016 30 845 24.95 12.3 54.2 77 8.5 47.2
05:40 1016 30 845 24.95 12.4 54.3 78 8.7 47.7
05:45 1016 30 845 24.95 12.7 54.8 75 8.5 47.2
05:50 1016 30 845 24.95 12.6 54.6 76 8.4 47.1
05:55 1016 30 845 24.95 12.4 54.2 78 8.7 47.7
06:00 1016 30 845 24.95 12.5 54.4 75 8.1 46.6
06:05 1016 30 845 24.95 12.3 54.2 74 7.9 46.1
06:10 1016 30 845 24.95 12.4 54.4 74 8 46.4
06:15 1016 30 845 24.95 11.9 53.4 78 8.1 46.6
06:20 1016 30 845 24.95 11.7 53 76 7.6 45.7
06:25 1016 30 845 24.95 11.7 53.1 76 7.7 45.8
06:30 1016 30 845 24.95 11.6 53 78 7.9 46.2
06:35 1016 30 845 24.95 11.7 53 76 7.7 45.8
06:40 1016 30 845 24.95 11.5 52.7 77 7.6 45.7
06:45 1016 30 845 24.95 11.5 52.7 77 7.6 45.7
06:50 1016 30 845 24.95 11.5 52.6 79 8 46.4
06:55 1016 30 845 24.95 11.1 52 81 8 46.3
07:00 1016 30 845 24.95 10.9 51.6 81 7.8 46
07:05 1016 30 845 24.95 10.8 51.5 82 7.8 46.1
07:10 1016 30 845 24.95 11.1 51.9 79 7.6 45.7
07:15 1016 30 845 24.95 11.5 52.7 77 7.7 45.8
07:20 1016 30 845 24.95 11.6 52.9 78 7.9 46.2
07:25 1016 30 845 24.95 11.9 53.3 76 7.7 45.9
07:30 1016 30 845 24.95 12.1 53.7 75 7.9 46.1
07:35 1016 30 845 24.95 12 53.6 76 7.9 46.3
07:40 1016 30 845 24.95 12.1 53.7 76 8 46.4
07:45 1016 30 845 24.95 12.3 54.2 76 8.3 46.9
07:50 1016 30 845 24.95 12.8 55 73 8 46.5
07:55 1016 30 845 24.95 13.1 55.5 72 8.2 46.8
08:00 1016 30 845 24.95 13.6 56.4 75 9.2 48.5
08:05 1016 30 845 24.95 13.9 57 71 8.7 47.7
08:10 1016 30 845 24.95 14.2 57.6 69 8.7 47.7
08:15 1016 30 845 24.95 14.5 58.1 71 9.3 48.8
08:20 1016 30 845 24.95 14.8 58.6 68 8.9 48
08:25 1016 30 845 24.95 15 58.9 67 9 48.1
08:30 1015 29.97 845 24.95 15.4 59.6 70 10 50.1
08:35 1015 29.97 845 24.95 15.7 60.3 64 9 48.2
08:40 1015 29.97 845 24.95 15.7 60.3 70 10.4 50.7
08:45 1015 29.97 845 24.95 16 60.8 65 9.5 49.1
08:50 1015 29.97 844 24.92 16.3 61.3 63 9.4 48.9
08:55 1015 29.97 844 24.92 16.4 61.5 65 9.8 49.6
09:00 1015 29.97 844 24.92 17.2 63 62 9.9 49.8
09:05 1015 29.97 844 24.92 17.5 63.5 64 10.8 51.4
09:10 1015 29.97 844 24.92 17.3 63.2 62 10 50
09:15 1015 29.97 844 24.92 17.9 64.2 57 9.3 48.7
09:20 1015 29.97 844 24.92 18.4 65 57 9.9 49.7
09:25 1015 29.97 844 24.92 18.2 64.8 57 9.6 49.3
09:30 1015 29.97 844 24.92 18.3 64.9 57 9.8 49.6
09:35 1015 29.97 844 24.92 18.7 65.7 55 9.7 49.4
09:40 1015 29.97 844 24.92 19.8 67.7 52 9.8 49.6
09:45 1015 29.97 844 24.92 19.7 67.5 53 9.9 49.9
09:50 1015 29.97 844 24.92 19.7 67.5 51 9.6 49.2
09:55 1015 29.97 844 24.92 20.5 68.9 48 9.2 48.6
10:00 1015 29.97 844 24.92 20.7 69.2 49 9.7 49.4
10:05 1014 29.94 844 24.92 20.4 68.6 48 9.1 48.5
10:10 1014 29.94 844 24.92 21.1 70 48 9.7 49.5
10:15 1014 29.94 844 24.92 21.6 70.8 45 9.2 48.5
10:20 1014 29.94 844 24.92 21.7 71 47 10 49.9
10:25 1014 29.94 844 24.92 21.9 71.3 45 9.7 49.4
10:30 1014 29.94 844 24.92 21.9 71.5 46 9.9 49.8
10:35 1014 29.94 843 24.89 22.4 72.2 43 9.5 49
10:40 1014 29.94 843 24.89 21.5 70.6 46 9.5 49.1
10:45 1014 29.94 843 24.89 21.8 71.3 43 8.9 48.1
10:50 1014 29.94 843 24.89 22.6 72.6 44 9.7 49.5
10:55 1014 29.94 843 24.89 23.3 73.9 41 9.4 49
11:00 1014 29.94 843 24.89 22.9 73.2 43 9.9 49.9
11:05 1014 29.94 843 24.89 22.3 72.1 42 8.9 48.1
11:10 1014 29.94 843 24.89 22.7 72.8 43 9.5 49.2
11:15 1014 29.94 843 24.89 23.2 73.7 42 9.8 49.6
11:20 1014 29.94 843 24.89 23.1 73.6 40 9 48.3
11:25 1014 29.94 843 24.89 22.8 73 40 8.7 47.6
11:30 1014 29.94 843 24.89 23.7 74.6 35 7.5 45.5
11:35 1014 29.94 843 24.89 23.6 74.5 36 8.1 46.5
11:40 1014 29.94 843 24.89 24.1 75.4 35 7.8 46
11:45 1014 29.94 843 24.89 24.1 75.4 37 8.8 47.9
11:50 1013 29.91 843 24.89 23.4 74.1 38 8.6 47.4
11:55 1013 29.91 843 24.89 24.4 75.9 35 8 46.5
12:00 1013 29.91 843 24.89 25.1 77.1 34 8.5 47.4
12:05 1013 29.91 843 24.89 25.8 78.4 33 8.4 47.1
12:10 1013 29.91 842 24.86 25.3 77.6 35 9.1 48.4
12:15 1013 29.91 842 24.86 25.8 78.4 33 8.7 47.6
12:20 1013 29.91 842 24.86 26 78.9 34 9 48.3
12:25 1013 29.91 842 24.86 25.5 77.9 34 8.6 47.4
12:30 1013 29.91 842 24.86 24.6 76.2 36 8.8 47.9
12:35 1013 29.91 842 24.86 24.8 76.6 35 8.4 47
12:40 1013 29.91 842 24.86 25.2 77.4 34 8.7 47.6
12:45 1013 29.91 842 24.86 25.8 78.4 31 7.5 45.5
12:50 1013 29.91 842 24.86 26.9 80.4 30 8.1 46.5
12:55 1013 29.91 842 24.86 27.2 80.9 30 8.4 47.2
13:00 1012 29.88 842 24.86 27.5 81.4 28 7.8 46
13:05 1012 29.88 842 24.86 27.6 81.6 29 8.1 46.6
13:10 1012 29.88 841 24.83 28 82.4 28 8.3 46.9
13:15 1012 29.88 841 24.83 27.8 82 27 7.4 45.3
13:20 1012 29.88 841 24.83 27.7 81.8 25 6.4 43.5
13:25 1012 29.88 841 24.83 27.5 81.4 27 6.9 44.4
13:30 1012 29.88 841 24.83 27.6 81.7 26 6.7 44.1
13:35 1012 29.88 841 24.83 28 82.3 26 7.2 44.9
13:40 1012 29.88 841 24.83 28.2 82.8 26 6.9 44.5
13:45 1012 29.88 841 24.83 28.4 83 25 6.7 44
13:50 1012 29.88 841 24.83 28.5 83.4 24 6.3 43.4
13:55 1012 29.88 841 24.83 28.4 83.2 21 4.1 39.5
14:00 1012 29.88 841 24.83 27.9 82.3 21 3.9 39.1
14:05 1012 29.88 841 24.83 27.3 81.2 21 3.2 37.7
14:10 1012 29.88 841 24.83 27 80.7 22 3.6 38.5
14:15 1011 29.85 841 24.83 27.7 81.8 21 3.9 39
14:20 1011 29.85 841 24.83 27 80.6 23 4.3 39.8
14:25 1011 29.85 840 24.81 26.3 79.4 24 4.5 40
14:30 1011 29.85 840 24.81 26.3 79.4 24 4.4 39.9
14:35 1011 29.85 840 24.81 26.6 79.8 25 5 41
14:40 1011 29.85 840 24.81 26.5 79.8 23 4.1 39.4
14:45 1011 29.85 840 24.81 26.4 79.5 23 4 39.1
14:50 1011 29.85 840 24.81 26.3 79.3 25 5.1 41.1
14:55 1011 29.85 840 24.81 25.6 78.1 27 5.3 41.6
15:00 1011 29.85 840 24.81 25.1 77.2 28 5.7 42.2
15:05 1011 29.85 840 24.81 25.1 77.2 29 5.9 42.7
15:10 1011 29.85 840 24.81 24.9 76.8 27 5 41
15:15 1011 29.85 840 24.81 23.8 74.9 31 5.8 42.5
15:20 1011 29.85 840 24.81 22.5 72.6 35 6.5 43.7
15:25 1011 29.85 840 24.81 21.5 70.7 39 7.2 45
15:30 1011 29.85 840 24.81 21.6 71 36 6.2 43.2
15:35 1011 29.85 840 24.81 21.9 71.4 35 6 42.8
15:40 1011 29.85 840 24.81 21.6 70.9 38 6.7 44.1
15:45 1011 29.85 840 24.81 21.2 70.2 39 6.8 44.2
15:50 1011 29.85 840 24.81 21.3 70.3 37 6.3 43.4
15:55 1011 29.85 840 24.81 21.9 71.4 36 6.4 43.5
16:00 1011 29.85 840 24.81 22.1 71.8 37 6.8 44.3
16:05 1011 29.85 840 24.81 22 71.6 35 6.1 43
16:10 1011 29.85 840 24.81 22.3 72.1 35 6.4 43.5
16:15 1011 29.85 840 24.81 22.6 72.7 35 6.4 43.5
16:20 1011 29.85 840 24.81 22.3 72.1 41 8.6 47.4
16:25 1010 29.83 840 24.81 21.1 69.9 45 8.8 47.9
16:30 1010 29.83 839 24.78 20.6 69.1 44 8.1 46.5
16:35 1010 29.83 839 24.78 21 69.8 43 8.2 46.7
16:40 1010 29.83 839 24.78 21.6 70.9 41 7.8 46
16:45 1010 29.83 839 24.78 22.6 72.6 39 8.1 46.5
16:50 1010 29.83 839 24.78 22.8 73 39 8.4 47.1
16:55 1010 29.83 839 24.78 23.1 73.5 38 8.1 46.6
17:00 1010 29.83 839 24.78 23.1 73.7 38 8.2 46.8
17:05 1010 29.83 839 24.78 23.3 73.9 37 7.9 46.2
17:10 1010 29.83 839 24.78 23.3 74 36 7.8 46
17:15 1010 29.83 839 24.78 23.5 74.4 36 7.7 45.8
17:20 1010 29.83 839 24.78 24 75.3 35 7.8 46.1
17:25 1010 29.83 839 24.78 24.7 76.5 34 8.2 46.7
17:30 1009 29.8 839 24.78 25 77 32 7.5 45.5
17:35 1009 29.8 839 24.78 24.8 76.7 32 7.5 45.4
17:40 1009 29.8 838 24.75 24.6 76.2 33 7.4 45.4
17:45 1009 29.8 838 24.75 24.5 76.2 35 8.3 47
17:50 1009 29.8 838 24.75 24.4 75.9 31 6.4 43.6
17:55 1009 29.8 838 24.75 24.5 76.1 32 7.1 44.9
18:00 1009 29.8 838 24.75 24.4 75.9 32 6.8 44.3
18:05 1009 29.8 838 24.75 24.1 75.4 33 7 44.5
18:10 1009 29.8 838 24.75 23.9 75.1 35 7.6 45.6
18:15 1009 29.8 838 24.75 23.7 74.6 35 7.7 45.8
18:20 1009 29.8 838 24.75 23.6 74.4 36 7.7 45.9
18:25 1009 29.8 838 24.75 23.7 74.7 28 4.2 39.6
18:30 1009 29.8 838 24.75 24.7 76.5 28 5.1 41.3
18:35 1009 29.8 838 24.75 25.1 77.2 27 5.3 41.5
18:40 1009 29.8 838 24.75 25.4 77.8 27 5.3 41.6
18:45 1008 29.77 838 24.75 25.7 78.2 28 5.8 42.5
18:50 1008 29.77 838 24.75 25.9 78.6 27 5.8 42.5
18:55 1008 29.77 838 24.75 25.9 78.6 27 5.7 42.3
19:00 1008 29.77 837 24.72 25.7 78.2 28 6.2 43.1
19:05 1008 29.77 837 24.72 25.2 77.3 32 7.6 45.6
19:10 1008 29.77 837 24.72 24.3 75.8 33 7.2 45
19:15 1008 29.77 837 24.72 24.3 75.8 30 5.7 42.2
19:20 1008 29.77 837 24.72 24.3 75.8 35 8 46.3
19:25 1008 29.77 837 24.72 24 75.2 40 9.6 49.3
19:30 1008 29.77 837 24.72 23.4 74.1 43 10.2 50.4
19:35 1008 29.77 837 24.72 22.7 72.9 42 9.5 49
19:40 1008 29.77 837 24.72 22.8 73 38 8 46.4
19:45 1008 29.77 837 24.72 22.8 73 39 8.2 46.8
19:50 1008 29.77 837 24.72 22.7 72.8 38 8 46.4
19:55 1007 29.74 837 24.72 22.6 72.6 37 7.4 45.4
20:00 1007 29.74 837 24.72 22.5 72.5 38 7.9 46.2
20:05 1007 29.74 837 24.72 22.3 72.1 40 8.3 46.9
20:10 1007 29.74 837 24.72 22 71.7 41 8.2 46.8
20:15 1007 29.74 837 24.72 21.9 71.3 44 9.2 48.5
20:20 1007 29.74 837 24.72 21.5 70.8 43 8.5 47.3
20:25 1007 29.74 837 24.72 21.7 71.1 41 8.2 46.7
20:30 1008 29.77 837 24.72 21.9 71.3 40 7.8 46.1
20:35 1008 29.77 837 24.72 21.9 71.4 39 7.6 45.6
20:40 1007 29.74 837 24.72 22 71.6 36 6.4 43.6
20:45 1007 29.74 837 24.72 22.1 71.8 35 6.2 43.1
20:50 1007 29.74 837 24.72 22.3 72.1 34 6 42.9
20:55 1007 29.74 837 24.72 22.3 72.1 35 6.1 43
21:00 1007 29.74 837 24.72 22.2 71.9 34 5.8 42.4
21:05 1007 29.74 837 24.72 22.3 72.1 34 5.9 42.6
21:10 1008 29.77 837 24.72 22.1 71.8 34 5.8 42.5
21:15 1008 29.77 837 24.72 22.2 71.9 34 5.9 42.6
21:20 1008 29.77 837 24.72 22.1 71.8 35 6.3 43.3
21:25 1008 29.77 837 24.72 22.1 71.8 36 6.4 43.5
21:30 1009 29.8 838 24.75 21.5 70.7 40 7.5 45.5
21:35 1008 29.77 837 24.72 22.3 72.1 25 1.6 34.9
21:40 1008 29.77 837 24.72 24.1 75.3 25 2.8 37
21:45 1007 29.74 837 24.72 24.2 75.6 23 2.3 36.2
21:50 1007 29.74 837 24.72 24.1 75.4 28 4.6 40.2
21:55 1008 29.77 837 24.72 22.8 73 38 8 46.4
22:00 1008 29.77 838 24.75 20.8 69.4 45 8.7 47.6
22:05 1008 29.77 838 24.75 20.1 68.1 48 8.8 47.9
22:10 1009 29.8 838 24.75 19.2 66.5 56 10.2 50.3
22:15 1009 29.8 838 24.75 18.1 64.6 63 11 51.8
22:20 1009 29.8 838 24.75 17.4 63.2 65 10.9 51.6
22:25 1009 29.8 839 24.78 17 62.6 66 10.8 51.4
22:30 1010 29.83 839 24.78 16.8 62.3 66 10.5 51
22:35 1011 29.85 840 24.81 16.8 62.2 67 10.6 51.2
22:40 1011 29.85 840 24.81 16.3 61.3 69 10.5 51
22:45 1011 29.85 840 24.81 16 60.7 68 10.2 50.3
22:50 1012 29.88 841 24.83 16 60.8 68 10.2 50.3
22:55 1011 29.85 841 24.83 15.7 60.3 67 9.8 49.6
23:00 1012 29.88 841 24.83 15.6 60.2 66 9.4 48.9
23:05 1012 29.88 841 24.83 15.5 59.9 66 9.2 48.6
23:10 1012 29.88 841 24.83 15.3 59.6 64 8.7 47.7
23:15 1012 29.88 841 24.83 15 59 63 8.1 46.6
23:20 1012 29.88 841 24.83 14.7 58.4 63 7.8 46.1
23:25 1012 29.88 842 24.86 14.6 58.4 63 7.8 46
23:30 1013 29.91 842 24.86 14.7 58.5 63 7.7 45.9
23:35 1013 29.91 842 24.86 14.6 58.4 62 7.5 45.5
23:40 1013 29.91 842 24.86 14.5 58.1 61 7.2 45
23:45 1013 29.91 842 24.86 14.5 58 58 6.4 43.6
23:50 1013 29.91 842 24.86 14.3 57.7 58 6.2 43.1
23:55 1013 29.91 842 24.86 14.1 57.3 59 6.2 43.2
24:00 1013 29.91 843 24.89 14 57.2 59 6.2 43.1